sensor_id;sensor_type;location;lat;lon;timestamp;temperature;humidity
75321;DHT22;63920;52.130;5.584;2023-02-01T00:01:46;5.10;99.90
75321;DHT22;63920;52.130;5.584;2023-02-01T00:04:11;5.10;99.90
75321;DHT22;63920;52.130;5.584;2023-02-01T00:06:37;5.20;99.90
75321;DHT22;63920;52.130;5.584;2023-02-01T00:09:03;5.20;99.90
75321;DHT22;63920;52.130;5.584;2023-02-01T00:11:29;5.20;99.90
75321;DHT22;63920;52.130;5.584;2023-02-01T00:13:54;5.20;99.90
75321;DHT22;63920;52.130;5.584;2023-02-01T00:16:25;5.20;99.90
75321;DHT22;63920;52.130;5.584;2023-02-01T00:18:55;5.20;99.90
75321;DHT22;63920;52.130;5.584;2023-02-01T00:21:21;5.20;99.90
75321;DHT22;63920;52.130;5.584;2023-02-01T00:23:47;5.20;99.90
75321;DHT22;63920;52.130;5.584;2023-02-01T00:26:37;5.30;99.90
75321;DHT22;63920;52.130;5.584;2023-02-01T00:29:06;5.30;99.90
75321;DHT22;63920;52.130;5.584;2023-02-01T00:31:32;5.30;99.90
75321;DHT22;63920;52.130;5.584;2023-02-01T00:33:58;5.30;99.90
75321;DHT22;63920;52.130;5.584;2023-02-01T00:36:23;5.40;99.90
75321;DHT22;63920;52.130;5.584;2023-02-01T00:38:49;5.40;99.90
75321;DHT22;63920;52.130;5.584;2023-02-01T00:41:20;5.40;99.90
75321;DHT22;63920;52.130;5.584;2023-02-01T00:43:46;5.40;99.90
75321;DHT22;63920;52.130;5.584;2023-02-01T00:46:13;5.40;99.90
75321;DHT22;63920;52.130;5.584;2023-02-01T00:48:39;5.40;99.90
75321;DHT22;63920;52.130;5.584;2023-02-01T00:51:08;5.40;99.90
75321;DHT22;63920;52.130;5.584;2023-02-01T00:53:34;5.40;99.90
75321;DHT22;63920;52.130;5.584;2023-02-01T00:55:59;5.40;99.90
75321;DHT22;63920;52.130;5.584;2023-02-01T00:58:26;5.50;99.90
75321;DHT22;63920;52.130;5.584;2023-02-01T01:03:37;5.50;99.90
75321;DHT22;63920;52.130;5.584;2023-02-01T01:06:06;5.60;99.90
75321;DHT22;63920;52.130;5.584;2023-02-01T01:08:32;5.60;99.90
75321;DHT22;63920;52.130;5.584;2023-02-01T01:10:58;5.60;99.90
75321;DHT22;63920;52.130;5.584;2023-02-01T01:13:23;5.60;99.90
75321;DHT22;63920;52.130;5.584;2023-02-01T01:15:49;5.60;99.90
75321;DHT22;63920;52.130;5.584;2023-02-01T01:18:15;5.70;99.90
75321;DHT22;63920;52.130;5.584;2023-02-01T01:20:41;5.70;99.90
75321;DHT22;63920;52.130;5.584;2023-02-01T01:23:08;5.70;99.90
75321;DHT22;63920;52.130;5.584;2023-02-01T01:25:38;5.70;99.90
75321;DHT22;63920;52.130;5.584;2023-02-01T01:28:04;5.70;99.90
75321;DHT22;63920;52.130;5.584;2023-02-01T01:30:29;5.70;99.90
75321;DHT22;63920;52.130;5.584;2023-02-01T01:32:55;5.70;99.90
75321;DHT22;63920;52.130;5.584;2023-02-01T01:35:20;5.80;99.90
75321;DHT22;63920;52.130;5.584;2023-02-01T01:37:46;5.80;99.90
75321;DHT22;63920;52.130;5.584;2023-02-01T01:40:12;5.80;99.90
75321;DHT22;63920;52.130;5.584;2023-02-01T01:42:39;5.80;99.90
75321;DHT22;63920;52.130;5.584;2023-02-01T01:45:11;5.90;99.90
75321;DHT22;63920;52.130;5.584;2023-02-01T01:47:48;6.00;99.90
75321;DHT22;63920;52.130;5.584;2023-02-01T01:50:18;6.00;99.90
75321;DHT22;63920;52.130;5.584;2023-02-01T01:52:46;6.10;99.90
75321;DHT22;63920;52.130;5.584;2023-02-01T01:55:15;6.10;99.90
75321;DHT22;63920;52.130;5.584;2023-02-01T01:57:45;6.20;99.90
75321;DHT22;63920;52.130;5.584;2023-02-01T02:00:14;6.20;99.90
75321;DHT22;63920;52.130;5.584;2023-02-01T02:02:42;6.20;99.90
75321;DHT22;63920;52.130;5.584;2023-02-01T02:05:09;6.30;99.90
75321;DHT22;63920;52.130;5.584;2023-02-01T02:07:39;6.30;99.90
75321;DHT22;63920;52.130;5.584;2023-02-01T02:10:07;6.30;99.90
75321;DHT22;63920;52.130;5.584;2023-02-01T02:12:38;6.30;99.90
75321;DHT22;63920;52.130;5.584;2023-02-01T02:15:05;6.40;99.90
75321;DHT22;63920;52.130;5.584;2023-02-01T02:17:56;6.40;99.90
75321;DHT22;63920;52.130;5.584;2023-02-01T02:21:00;6.40;99.90
75321;DHT22;63920;52.130;5.584;2023-02-01T02:28:59;6.40;99.90
75321;DHT22;63920;52.130;5.584;2023-02-01T02:37:04;6.50;99.90
75321;DHT22;63920;52.130;5.584;2023-02-01T02:42:34;6.60;99.90
75321;DHT22;63920;52.130;5.584;2023-02-01T02:45:40;6.60;99.90
75321;DHT22;63920;52.130;5.584;2023-02-01T02:48:38;6.60;99.90
75321;DHT22;63920;52.130;5.584;2023-02-01T02:51:23;6.60;99.90
75321;DHT22;63920;52.130;5.584;2023-02-01T02:54:16;6.60;99.90
75321;DHT22;63920;52.130;5.584;2023-02-01T02:57:05;6.60;99.90
75321;DHT22;63920;52.130;5.584;2023-02-01T02:59:52;6.70;99.90
75321;DHT22;63920;52.130;5.584;2023-02-01T03:02:37;6.70;99.90
75321;DHT22;63920;52.130;5.584;2023-02-01T03:05:21;6.70;99.90
75321;DHT22;63920;52.130;5.584;2023-02-01T03:07:57;6.70;99.90
75321;DHT22;63920;52.130;5.584;2023-02-01T03:10:42;6.70;99.90
75321;DHT22;63920;52.130;5.584;2023-02-01T03:13:33;6.80;99.90
75321;DHT22;63920;52.130;5.584;2023-02-01T03:19:04;6.70;99.90
75321;DHT22;63920;52.130;5.584;2023-02-01T03:24:23;6.90;99.90
75321;DHT22;63920;52.130;5.584;2023-02-01T03:27:09;6.70;99.90
75321;DHT22;63920;52.130;5.584;2023-02-01T03:30:02;6.80;99.90
75321;DHT22;63920;52.130;5.584;2023-02-01T03:32:31;6.70;99.90
75321;DHT22;63920;52.130;5.584;2023-02-01T03:35:17;6.70;99.90
75321;DHT22;63920;52.130;5.584;2023-02-01T03:37:45;6.70;99.90
75321;DHT22;63920;52.130;5.584;2023-02-01T03:40:11;6.80;99.90
75321;DHT22;63920;52.130;5.584;2023-02-01T03:42:42;6.60;99.90
75321;DHT22;63920;52.130;5.584;2023-02-01T03:45:14;6.60;99.90
75321;DHT22;63920;52.130;5.584;2023-02-01T03:47:46;6.60;99.90
75321;DHT22;63920;52.130;5.584;2023-02-01T03:50:17;6.60;99.90
75321;DHT22;63920;52.130;5.584;2023-02-01T03:52:50;6.50;99.90
75321;DHT22;63920;52.130;5.584;2023-02-01T03:55:19;6.50;99.90
75321;DHT22;63920;52.130;5.584;2023-02-01T03:57:58;6.50;99.90
75321;DHT22;63920;52.130;5.584;2023-02-01T04:00:26;6.60;99.90
75321;DHT22;63920;52.130;5.584;2023-02-01T04:02:52;6.50;99.90
75321;DHT22;63920;52.130;5.584;2023-02-01T04:05:19;6.50;99.90
75321;DHT22;63920;52.130;5.584;2023-02-01T04:07:45;6.60;99.90
75321;DHT22;63920;52.130;5.584;2023-02-01T04:10:11;6.50;99.90
75321;DHT22;63920;52.130;5.584;2023-02-01T04:12:37;6.60;99.90
75321;DHT22;63920;52.130;5.584;2023-02-01T04:15:03;6.50;99.90
75321;DHT22;63920;52.130;5.584;2023-02-01T04:17:29;6.50;99.90
75321;DHT22;63920;52.130;5.584;2023-02-01T04:19:54;6.60;99.90
75321;DHT22;63920;52.130;5.584;2023-02-01T04:22:20;6.60;99.90
75321;DHT22;63920;52.130;5.584;2023-02-01T04:24:46;6.60;99.90
75321;DHT22;63920;52.130;5.584;2023-02-01T04:27:11;6.60;99.90
75321;DHT22;63920;52.130;5.584;2023-02-01T04:29:37;6.60;99.90
75321;DHT22;63920;52.130;5.584;2023-02-01T04:32:04;6.70;99.90
75321;DHT22;63920;52.130;5.584;2023-02-01T04:34:30;6.70;99.90
75321;DHT22;63920;52.130;5.584;2023-02-01T04:36:55;6.70;99.90
75321;DHT22;63920;52.130;5.584;2023-02-01T04:39:21;6.70;99.90
75321;DHT22;63920;52.130;5.584;2023-02-01T04:41:46;6.70;99.90
75321;DHT22;63920;52.130;5.584;2023-02-01T04:44:17;6.70;99.90
75321;DHT22;63920;52.130;5.584;2023-02-01T04:46:43;6.70;99.90
75321;DHT22;63920;52.130;5.584;2023-02-01T04:49:10;6.70;99.90
75321;DHT22;63920;52.130;5.584;2023-02-01T04:51:36;6.70;99.90
75321;DHT22;63920;52.130;5.584;2023-02-01T04:54:01;6.80;99.90
75321;DHT22;63920;52.130;5.584;2023-02-01T04:56:27;6.70;99.90
75321;DHT22;63920;52.130;5.584;2023-02-01T04:58:53;6.70;99.90
75321;DHT22;63920;52.130;5.584;2023-02-01T05:01:18;6.70;99.90
75321;DHT22;63920;52.130;5.584;2023-02-01T05:03:44;6.60;99.90
75321;DHT22;63920;52.130;5.584;2023-02-01T05:06:09;6.60;99.90
75321;DHT22;63920;52.130;5.584;2023-02-01T05:08:35;6.60;99.90
75321;DHT22;63920;52.130;5.584;2023-02-01T05:11:01;6.60;99.90
75321;DHT22;63920;52.130;5.584;2023-02-01T05:13:30;6.60;99.90
75321;DHT22;63920;52.130;5.584;2023-02-01T05:16:15;6.70;99.90
75321;DHT22;63920;52.130;5.584;2023-02-01T05:18:40;6.60;99.90
75321;DHT22;63920;52.130;5.584;2023-02-01T05:21:06;6.60;99.90
75321;DHT22;63920;52.130;5.584;2023-02-01T05:23:32;6.60;99.90
75321;DHT22;63920;52.130;5.584;2023-02-01T05:26:00;6.60;99.90
75321;DHT22;63920;52.130;5.584;2023-02-01T05:28:27;6.60;99.90
75321;DHT22;63920;52.130;5.584;2023-02-01T05:30:53;6.70;99.90
75321;DHT22;63920;52.130;5.584;2023-02-01T05:33:19;6.60;99.90
75321;DHT22;63920;52.130;5.584;2023-02-01T05:35:44;6.60;99.90
75321;DHT22;63920;52.130;5.584;2023-02-01T05:38:10;6.60;99.90
75321;DHT22;63920;52.130;5.584;2023-02-01T05:40:35;6.60;99.90
75321;DHT22;63920;52.130;5.584;2023-02-01T05:43:01;6.70;99.90
75321;DHT22;63920;52.130;5.584;2023-02-01T05:45:26;6.70;99.90
75321;DHT22;63920;52.130;5.584;2023-02-01T05:47:52;6.70;99.90
75321;DHT22;63920;52.130;5.584;2023-02-01T05:50:17;6.70;99.90
75321;DHT22;63920;52.130;5.584;2023-02-01T05:52:43;6.60;99.90
75321;DHT22;63920;52.130;5.584;2023-02-01T05:55:09;6.50;99.90
75321;DHT22;63920;52.130;5.584;2023-02-01T05:57:35;6.60;99.90
75321;DHT22;63920;52.130;5.584;2023-02-01T06:00:00;6.60;99.90
75321;DHT22;63920;52.130;5.584;2023-02-01T06:02:26;6.70;99.90
75321;DHT22;63920;52.130;5.584;2023-02-01T06:04:52;6.70;99.90
75321;DHT22;63920;52.130;5.584;2023-02-01T06:07:17;6.80;99.90
75321;DHT22;63920;52.130;5.584;2023-02-01T06:09:43;6.70;99.90
75321;DHT22;63920;52.130;5.584;2023-02-01T06:12:09;6.80;99.90
75321;DHT22;63920;52.130;5.584;2023-02-01T06:14:34;6.80;99.90
75321;DHT22;63920;52.130;5.584;2023-02-01T06:17:00;6.80;99.90
75321;DHT22;63920;52.130;5.584;2023-02-01T06:19:25;6.70;99.90
75321;DHT22;63920;52.130;5.584;2023-02-01T06:21:51;6.70;99.90
75321;DHT22;63920;52.130;5.584;2023-02-01T06:24:17;6.60;99.90
75321;DHT22;63920;52.130;5.584;2023-02-01T06:26:43;6.70;99.90
75321;DHT22;63920;52.130;5.584;2023-02-01T06:29:12;6.70;99.90
75321;DHT22;63920;52.130;5.584;2023-02-01T06:31:38;6.70;99.90
75321;DHT22;63920;52.130;5.584;2023-02-01T06:34:03;6.70;99.90
75321;DHT22;63920;52.130;5.584;2023-02-01T06:36:29;6.70;99.90
75321;DHT22;63920;52.130;5.584;2023-02-01T06:38:57;6.70;99.90
75321;DHT22;63920;52.130;5.584;2023-02-01T06:41:24;6.70;99.90
75321;DHT22;63920;52.130;5.584;2023-02-01T06:43:50;6.70;99.90
75321;DHT22;63920;52.130;5.584;2023-02-01T06:46:16;6.60;99.90
75321;DHT22;63920;52.130;5.584;2023-02-01T06:48:42;6.60;99.90
75321;DHT22;63920;52.130;5.584;2023-02-01T06:51:22;6.60;99.90
75321;DHT22;63920;52.130;5.584;2023-02-01T06:53:48;6.50;99.90
75321;DHT22;63920;52.130;5.584;2023-02-01T06:56:13;6.60;99.90
75321;DHT22;63920;52.130;5.584;2023-02-01T06:58:39;6.50;99.90
75321;DHT22;63920;52.130;5.584;2023-02-01T07:01:06;6.50;99.90
75321;DHT22;63920;52.130;5.584;2023-02-01T07:03:32;6.50;99.90
75321;DHT22;63920;52.130;5.584;2023-02-01T07:05:58;6.50;99.90
75321;DHT22;63920;52.130;5.584;2023-02-01T07:08:26;6.40;99.90
75321;DHT22;63920;52.130;5.584;2023-02-01T07:10:52;6.50;99.90
75321;DHT22;63920;52.130;5.584;2023-02-01T07:13:18;6.40;99.90
75321;DHT22;63920;52.130;5.584;2023-02-01T07:15:43;6.50;99.90
75321;DHT22;63920;52.130;5.584;2023-02-01T07:18:09;6.50;99.90
75321;DHT22;63920;52.130;5.584;2023-02-01T07:20:34;6.40;99.90
75321;DHT22;63920;52.130;5.584;2023-02-01T07:23:00;6.40;99.90
75321;DHT22;63920;52.130;5.584;2023-02-01T07:25:25;6.60;99.90
75321;DHT22;63920;52.130;5.584;2023-02-01T07:27:51;6.50;99.90
75321;DHT22;63920;52.130;5.584;2023-02-01T07:30:17;6.50;99.90
75321;DHT22;63920;52.130;5.584;2023-02-01T07:32:43;6.50;99.90
75321;DHT22;63920;52.130;5.584;2023-02-01T07:35:08;6.60;99.90
75321;DHT22;63920;52.130;5.584;2023-02-01T07:37:34;6.50;99.90
75321;DHT22;63920;52.130;5.584;2023-02-01T07:40:00;6.50;99.90
75321;DHT22;63920;52.130;5.584;2023-02-01T07:42:25;6.50;99.90
75321;DHT22;63920;52.130;5.584;2023-02-01T07:44:51;6.50;99.90
75321;DHT22;63920;52.130;5.584;2023-02-01T07:47:17;6.60;99.90
75321;DHT22;63920;52.130;5.584;2023-02-01T07:49:44;6.50;99.90
75321;DHT22;63920;52.130;5.584;2023-02-01T07:52:10;6.50;99.90
75321;DHT22;63920;52.130;5.584;2023-02-01T07:54:38;6.50;99.90
75321;DHT22;63920;52.130;5.584;2023-02-01T07:57:03;6.50;99.90
75321;DHT22;63920;52.130;5.584;2023-02-01T07:59:29;6.50;99.90
75321;DHT22;63920;52.130;5.584;2023-02-01T08:01:54;6.50;99.90
75321;DHT22;63920;52.130;5.584;2023-02-01T08:04:20;6.50;99.90
75321;DHT22;63920;52.130;5.584;2023-02-01T08:06:45;6.60;99.90
75321;DHT22;63920;52.130;5.584;2023-02-01T08:09:11;6.50;99.90
75321;DHT22;63920;52.130;5.584;2023-02-01T08:11:37;6.60;99.90
75321;DHT22;63920;52.130;5.584;2023-02-01T08:14:03;6.60;99.90
75321;DHT22;63920;52.130;5.584;2023-02-01T08:16:29;6.60;99.90
75321;DHT22;63920;52.130;5.584;2023-02-01T08:18:55;6.60;99.90
75321;DHT22;63920;52.130;5.584;2023-02-01T08:21:24;6.60;99.90
75321;DHT22;63920;52.130;5.584;2023-02-01T08:23:50;6.60;99.90
75321;DHT22;63920;52.130;5.584;2023-02-01T08:26:21;6.60;99.90
75321;DHT22;63920;52.130;5.584;2023-02-01T08:28:53;6.60;99.90
75321;DHT22;63920;52.130;5.584;2023-02-01T08:31:20;6.70;99.90
75321;DHT22;63920;52.130;5.584;2023-02-01T08:33:51;6.70;99.90
75321;DHT22;63920;52.130;5.584;2023-02-01T08:36:18;6.70;99.90
75321;DHT22;63920;52.130;5.584;2023-02-01T08:38:43;6.70;99.90
75321;DHT22;63920;52.130;5.584;2023-02-01T08:41:13;6.80;99.90
75321;DHT22;63920;52.130;5.584;2023-02-01T08:43:40;7.00;99.90
75321;DHT22;63920;52.130;5.584;2023-02-01T08:46:06;6.70;99.90
75321;DHT22;63920;52.130;5.584;2023-02-01T08:48:32;6.90;99.90
75321;DHT22;63920;52.130;5.584;2023-02-01T08:51:01;6.90;99.90
75321;DHT22;63920;52.130;5.584;2023-02-01T08:53:28;6.90;99.90
75321;DHT22;63920;52.130;5.584;2023-02-01T08:55:54;6.90;99.90
75321;DHT22;63920;52.130;5.584;2023-02-01T08:58:19;6.90;99.90
75321;DHT22;63920;52.130;5.584;2023-02-01T09:00:47;6.90;99.90
75321;DHT22;63920;52.130;5.584;2023-02-01T09:03:14;6.90;99.90
75321;DHT22;63920;52.130;5.584;2023-02-01T09:05:40;6.90;99.90
75321;DHT22;63920;52.130;5.584;2023-02-01T09:08:05;6.90;99.90
75321;DHT22;63920;52.130;5.584;2023-02-01T09:10:31;6.90;99.90
75321;DHT22;63920;52.130;5.584;2023-02-01T09:12:57;6.90;99.90
75321;DHT22;63920;52.130;5.584;2023-02-01T09:15:22;6.90;99.90
75321;DHT22;63920;52.130;5.584;2023-02-01T09:17:48;7.00;99.90
75321;DHT22;63920;52.130;5.584;2023-02-01T09:20:14;7.10;99.90
75321;DHT22;63920;52.130;5.584;2023-02-01T09:22:41;7.10;99.90
75321;DHT22;63920;52.130;5.584;2023-02-01T09:25:07;7.20;99.90
75321;DHT22;63920;52.130;5.584;2023-02-01T09:27:33;7.30;99.90
75321;DHT22;63920;52.130;5.584;2023-02-01T09:29:59;7.30;99.90
75321;DHT22;63920;52.130;5.584;2023-02-01T09:32:27;7.40;99.90
75321;DHT22;63920;52.130;5.584;2023-02-01T09:34:53;7.40;99.90
75321;DHT22;63920;52.130;5.584;2023-02-01T09:37:19;7.40;99.90
75321;DHT22;63920;52.130;5.584;2023-02-01T09:39:48;7.50;99.90
75321;DHT22;63920;52.130;5.584;2023-02-01T09:45:06;7.40;99.90
75321;DHT22;63920;52.130;5.584;2023-02-01T09:47:35;7.40;99.90
75321;DHT22;63920;52.130;5.584;2023-02-01T09:50:11;7.40;99.90
75321;DHT22;63920;52.130;5.584;2023-02-01T09:55:45;7.50;99.90
75321;DHT22;63920;52.130;5.584;2023-02-01T09:58:31;7.40;99.90
75321;DHT22;63920;52.130;5.584;2023-02-01T10:00:59;7.40;99.90
75321;DHT22;63920;52.130;5.584;2023-02-01T10:03:31;7.40;99.90
75321;DHT22;63920;52.130;5.584;2023-02-01T10:06:25;7.40;99.90
75321;DHT22;63920;52.130;5.584;2023-02-01T10:11:51;7.40;99.90
75321;DHT22;63920;52.130;5.584;2023-02-01T10:22:13;7.40;99.90
75321;DHT22;63920;52.130;5.584;2023-02-01T10:24:44;7.30;99.90
75321;DHT22;63920;52.130;5.584;2023-02-01T10:27:21;7.20;99.90
75321;DHT22;63920;52.130;5.584;2023-02-01T10:29:58;7.30;99.90
75321;DHT22;63920;52.130;5.584;2023-02-01T10:32:34;7.20;99.90
75321;DHT22;63920;52.130;5.584;2023-02-01T10:35:08;7.20;99.90
75321;DHT22;63920;52.130;5.584;2023-02-01T10:37:35;7.10;99.90
75321;DHT22;63920;52.130;5.584;2023-02-01T10:40:24;7.00;99.90
75321;DHT22;63920;52.130;5.584;2023-02-01T10:42:59;6.90;99.90
75321;DHT22;63920;52.130;5.584;2023-02-01T10:45:27;6.90;99.90
75321;DHT22;63920;52.130;5.584;2023-02-01T10:47:57;6.90;99.90
75321;DHT22;63920;52.130;5.584;2023-02-01T10:50:49;6.90;99.90
75321;DHT22;63920;52.130;5.584;2023-02-01T10:53:33;6.90;99.90
75321;DHT22;63920;52.130;5.584;2023-02-01T10:56:07;6.80;99.90
75321;DHT22;63920;52.130;5.584;2023-02-01T10:58:33;6.90;99.90
75321;DHT22;63920;52.130;5.584;2023-02-01T11:01:04;7.00;99.90
75321;DHT22;63920;52.130;5.584;2023-02-01T11:03:40;7.00;99.90
75321;DHT22;63920;52.130;5.584;2023-02-01T11:06:28;7.00;99.90
75321;DHT22;63920;52.130;5.584;2023-02-01T11:09:00;7.00;99.90
75321;DHT22;63920;52.130;5.584;2023-02-01T11:11:27;7.10;99.90
75321;DHT22;63920;52.130;5.584;2023-02-01T11:14:01;7.10;99.90
75321;DHT22;63920;52.130;5.584;2023-02-01T11:16:35;7.10;99.90
75321;DHT22;63920;52.130;5.584;2023-02-01T11:19:02;7.20;99.90
75321;DHT22;63920;52.130;5.584;2023-02-01T11:21:28;7.20;99.90
75321;DHT22;63920;52.130;5.584;2023-02-01T11:23:54;7.30;99.90
75321;DHT22;63920;52.130;5.584;2023-02-01T11:29:03;7.30;99.90
75321;DHT22;63920;52.130;5.584;2023-02-01T11:31:29;7.30;99.90
75321;DHT22;63920;52.130;5.584;2023-02-01T11:33:59;7.30;99.90
75321;DHT22;63920;52.130;5.584;2023-02-01T11:36:28;7.40;99.90
75321;DHT22;63920;52.130;5.584;2023-02-01T11:39:24;7.40;99.90
75321;DHT22;63920;52.130;5.584;2023-02-01T11:42:04;7.40;99.90
75321;DHT22;63920;52.130;5.584;2023-02-01T11:44:37;7.40;99.90
75321;DHT22;63920;52.130;5.584;2023-02-01T11:47:26;7.50;99.90
75321;DHT22;63920;52.130;5.584;2023-02-01T11:49:57;7.50;99.90
75321;DHT22;63920;52.130;5.584;2023-02-01T11:52:29;7.60;99.90
75321;DHT22;63920;52.130;5.584;2023-02-01T12:00:24;7.70;99.90
75321;DHT22;63920;52.130;5.584;2023-02-01T12:05:54;7.80;99.90
75321;DHT22;63920;52.130;5.584;2023-02-01T12:11:15;7.80;99.90
75321;DHT22;63920;52.130;5.584;2023-02-01T12:33:07;8.00;99.90
75321;DHT22;63920;52.130;5.584;2023-02-01T12:38:53;8.00;99.90
75321;DHT22;63920;52.130;5.584;2023-02-01T12:41:41;8.00;99.90
75321;DHT22;63920;52.130;5.584;2023-02-01T12:47:47;8.00;99.90
75321;DHT22;63920;52.130;5.584;2023-02-01T12:49:57;8.00;99.90
75321;DHT22;63920;52.130;5.584;2023-02-01T12:52:35;7.90;99.90
75321;DHT22;63920;52.130;5.584;2023-02-01T12:57:44;7.90;99.90
75321;DHT22;63920;52.130;5.584;2023-02-01T13:00:34;8.00;99.90
75321;DHT22;63920;52.130;5.584;2023-02-01T13:03:11;7.90;99.90
75321;DHT22;63920;52.130;5.584;2023-02-01T13:05:56;7.90;99.90
75321;DHT22;63920;52.130;5.584;2023-02-01T13:08:53;7.90;99.90
75321;DHT22;63920;52.130;5.584;2023-02-01T13:11:28;7.90;99.90
75321;DHT22;63920;52.130;5.584;2023-02-01T13:16:49;7.90;99.90
75321;DHT22;63920;52.130;5.584;2023-02-01T13:19:43;7.90;99.90
75321;DHT22;63920;52.130;5.584;2023-02-01T13:22:17;7.90;99.90
75321;DHT22;63920;52.130;5.584;2023-02-01T13:25:12;7.90;99.90
75321;DHT22;63920;52.130;5.584;2023-02-01T13:27:39;7.90;99.90
75321;DHT22;63920;52.130;5.584;2023-02-01T13:30:48;8.00;99.90
75321;DHT22;63920;52.130;5.584;2023-02-01T13:41:55;8.00;99.90
75321;DHT22;63920;52.130;5.584;2023-02-01T13:44:33;7.80;99.90
75321;DHT22;63920;52.130;5.584;2023-02-01T13:47:02;8.00;99.90
75321;DHT22;63920;52.130;5.584;2023-02-01T13:49:38;8.00;99.90
75321;DHT22;63920;52.130;5.584;2023-02-01T13:52:17;8.00;99.90
75321;DHT22;63920;52.130;5.584;2023-02-01T13:54:48;8.10;99.90
75321;DHT22;63920;52.130;5.584;2023-02-01T13:57:59;8.10;99.90
75321;DHT22;63920;52.130;5.584;2023-02-01T14:00:37;8.10;99.90
75321;DHT22;63920;52.130;5.584;2023-02-01T14:10:59;8.20;99.90
75321;DHT22;63920;52.130;5.584;2023-02-01T14:13:30;8.20;99.90
75321;DHT22;63920;52.130;5.584;2023-02-01T14:21:33;8.20;99.90
75321;DHT22;63920;52.130;5.584;2023-02-01T14:55:59;8.20;99.90
75321;DHT22;63920;52.130;5.584;2023-02-01T15:01:05;8.20;99.90
75321;DHT22;63920;52.130;5.584;2023-02-01T15:06:48;8.10;99.90
75321;DHT22;63920;52.130;5.584;2023-02-01T15:09:20;7.80;99.90
75321;DHT22;63920;52.130;5.584;2023-02-01T15:14:28;7.50;99.90
75321;DHT22;63920;52.130;5.584;2023-02-01T15:16:54;7.30;99.90
75321;DHT22;63920;52.130;5.584;2023-02-01T15:19:28;7.20;99.90
75321;DHT22;63920;52.130;5.584;2023-02-01T15:21:57;7.10;99.90
75321;DHT22;63920;52.130;5.584;2023-02-01T15:24:29;7.10;99.90
75321;DHT22;63920;52.130;5.584;2023-02-01T15:26:56;7.00;99.90
75321;DHT22;63920;52.130;5.584;2023-02-01T15:29:26;7.10;99.90
75321;DHT22;63920;52.130;5.584;2023-02-01T15:32:00;7.10;99.90
75321;DHT22;63920;52.130;5.584;2023-02-01T15:34:45;7.20;99.90
75321;DHT22;63920;52.130;5.584;2023-02-01T15:37:14;7.20;99.90
75321;DHT22;63920;52.130;5.584;2023-02-01T15:40:14;7.40;99.90
75321;DHT22;63920;52.130;5.584;2023-02-01T15:45:20;7.90;99.90
75321;DHT22;63920;52.130;5.584;2023-02-01T15:47:48;8.00;99.90
75321;DHT22;63920;52.130;5.584;2023-02-01T15:50:19;8.00;99.90
75321;DHT22;63920;52.130;5.584;2023-02-01T15:52:48;8.00;99.90
75321;DHT22;63920;52.130;5.584;2023-02-01T15:57:44;8.10;99.90
75321;DHT22;63920;52.130;5.584;2023-02-01T16:00:23;8.10;99.90
75321;DHT22;63920;52.130;5.584;2023-02-01T16:02:58;8.10;99.90
75321;DHT22;63920;52.130;5.584;2023-02-01T16:08:03;8.20;99.90
75321;DHT22;63920;52.130;5.584;2023-02-01T16:10:30;8.20;99.90
75321;DHT22;63920;52.130;5.584;2023-02-01T16:12:56;8.10;99.90
75321;DHT22;63920;52.130;5.584;2023-02-01T16:15:28;8.10;99.90
75321;DHT22;63920;52.130;5.584;2023-02-01T16:17:55;8.10;99.90
75321;DHT22;63920;52.130;5.584;2023-02-01T16:20:21;8.10;99.90
75321;DHT22;63920;52.130;5.584;2023-02-01T16:22:47;8.20;99.90
75321;DHT22;63920;52.130;5.584;2023-02-01T16:25:12;8.30;99.90
75321;DHT22;63920;52.130;5.584;2023-02-01T16:27:38;8.20;99.90
75321;DHT22;63920;52.130;5.584;2023-02-01T16:30:04;8.10;99.90
75321;DHT22;63920;52.130;5.584;2023-02-01T16:32:30;8.20;99.90
75321;DHT22;63920;52.130;5.584;2023-02-01T16:34:57;8.20;99.90
75321;DHT22;63920;52.130;5.584;2023-02-01T16:37:24;8.30;99.90
75321;DHT22;63920;52.130;5.584;2023-02-01T16:39:50;8.20;99.90
75321;DHT22;63920;52.130;5.584;2023-02-01T16:42:16;8.20;99.90
75321;DHT22;63920;52.130;5.584;2023-02-01T16:44:42;8.20;99.90
75321;DHT22;63920;52.130;5.584;2023-02-01T16:47:19;8.30;99.90
75321;DHT22;63920;52.130;5.584;2023-02-01T16:49:45;8.30;99.90
75321;DHT22;63920;52.130;5.584;2023-02-01T16:52:21;8.30;99.90
75321;DHT22;63920;52.130;5.584;2023-02-01T16:54:47;8.30;99.90
75321;DHT22;63920;52.130;5.584;2023-02-01T16:57:15;8.20;99.90
75321;DHT22;63920;52.130;5.584;2023-02-01T16:59:42;8.30;99.90
75321;DHT22;63920;52.130;5.584;2023-02-01T17:02:13;8.30;99.90
75321;DHT22;63920;52.130;5.584;2023-02-01T17:04:39;8.30;99.90
75321;DHT22;63920;52.130;5.584;2023-02-01T17:07:05;8.30;99.90
75321;DHT22;63920;52.130;5.584;2023-02-01T17:09:38;8.30;99.90
75321;DHT22;63920;52.130;5.584;2023-02-01T17:12:05;8.30;99.90
75321;DHT22;63920;52.130;5.584;2023-02-01T17:14:34;8.30;99.90
75321;DHT22;63920;52.130;5.584;2023-02-01T17:17:01;8.30;99.90
75321;DHT22;63920;52.130;5.584;2023-02-01T17:19:27;8.20;99.90
75321;DHT22;63920;52.130;5.584;2023-02-01T17:21:55;8.20;99.90
75321;DHT22;63920;52.130;5.584;2023-02-01T17:24:28;8.30;99.90
75321;DHT22;63920;52.130;5.584;2023-02-01T17:26:54;8.30;99.90
75321;DHT22;63920;52.130;5.584;2023-02-01T17:29:20;8.30;99.90
75321;DHT22;63920;52.130;5.584;2023-02-01T17:31:49;8.30;99.90
75321;DHT22;63920;52.130;5.584;2023-02-01T17:34:15;8.30;99.90
75321;DHT22;63920;52.130;5.584;2023-02-01T17:36:42;8.30;99.90
75321;DHT22;63920;52.130;5.584;2023-02-01T17:39:08;8.40;99.90
75321;DHT22;63920;52.130;5.584;2023-02-01T17:41:35;8.30;99.90
75321;DHT22;63920;52.130;5.584;2023-02-01T17:44:02;8.40;99.90
75321;DHT22;63920;52.130;5.584;2023-02-01T17:46:30;8.30;99.90
75321;DHT22;63920;52.130;5.584;2023-02-01T17:48:56;8.30;99.90
75321;DHT22;63920;52.130;5.584;2023-02-01T17:51:25;8.30;99.90
75321;DHT22;63920;52.130;5.584;2023-02-01T17:53:54;8.30;99.90
75321;DHT22;63920;52.130;5.584;2023-02-01T17:56:22;8.20;99.90
75321;DHT22;63920;52.130;5.584;2023-02-01T17:58:49;8.30;99.90
75321;DHT22;63920;52.130;5.584;2023-02-01T18:01:22;8.30;99.90
75321;DHT22;63920;52.130;5.584;2023-02-01T18:03:49;8.40;99.90
75321;DHT22;63920;52.130;5.584;2023-02-01T18:06:21;8.40;99.90
75321;DHT22;63920;52.130;5.584;2023-02-01T18:08:46;8.30;99.90
75321;DHT22;63920;52.130;5.584;2023-02-01T18:11:17;8.30;99.90
75321;DHT22;63920;52.130;5.584;2023-02-01T18:13:43;8.20;99.90
75321;DHT22;63920;52.130;5.584;2023-02-01T18:16:26;8.10;99.90
75321;DHT22;63920;52.130;5.584;2023-02-01T18:18:52;7.90;99.90
75321;DHT22;63920;52.130;5.584;2023-02-01T18:21:19;7.70;99.90
75321;DHT22;63920;52.130;5.584;2023-02-01T18:23:46;7.00;99.90
75321;DHT22;63920;52.130;5.584;2023-02-01T18:26:13;6.40;99.90
75321;DHT22;63920;52.130;5.584;2023-02-01T18:28:39;6.30;99.90
75321;DHT22;63920;52.130;5.584;2023-02-01T18:31:07;6.20;99.90
75321;DHT22;63920;52.130;5.584;2023-02-01T18:33:41;6.20;99.90
75321;DHT22;63920;52.130;5.584;2023-02-01T18:36:11;6.10;99.90
75321;DHT22;63920;52.130;5.584;2023-02-01T18:38:37;6.10;99.90